Terminal Aerodrome Forecast
Issued by NWS

Home | Current Version | Previous Version | Text Only | Print | Product List | Glossary On
Versions: 1 2 3 4 5 6 7 8 9 10 11 12 13 14 15 16 17 18 19 20 21 22 23 24 25 26 27 28 29 30 31
000
FTAK31 PAFA 011736
TAFAUN
TAF
PAUN 011736Z 0118/0218 29005KT 1SM -SHRA BR FU OVC004
     FM012200 28008KT 4SM -SHRA BR FU SCT005 BKN012
     FM020400 25008KT 6SM BR FU VCSH SCT010 BKN020
     FM021000 24010KT 4SM -SHRA BR FU SCT007 OVC015=

USA.gov is the U.S. government's official web portal to all federal, state and local government web resources and services.